KMBS/MBS METAR and TAF weather

Enter ICAO airport designator
Station Type Date Time Source
KMBS METAR 2019/10/15 21:00 UTC NOAA

KMBS 152100Z 13006KT 10SM -RA OVC065 11/07 A2982 RMK AO2 LTG DSNT SE P0000 T01060072 $


Station Type Date Time Source
KMBS Decoded METAR 2019/10/15 21:00 UTC NOAA

MBS INTERNATIONAL AIRPORT, MI, United States (KMBS) 43-32N 084-05W 202M
Oct 15, 2019 - 05:00 PM EDT / 2019.10.15 2100 UTC
Wind: from the SE (130 degrees) at 7 MPH (6 KT):0
Visibility: 10 mile(s):0
Sky conditions: overcast
Weather: light rain; Lightning observed
Precipitation last hour: A trace
Temperature: 51.1 F (10.6 C)
Dew Point: 45.0 F (7.2 C)
Relative Humidity: 79%
Pressure (altimeter): 29.82 in. Hg (1009 hPa)
ob: KMBS 152100Z 13006KT 10SM -RA OVC065 11/07 A2982 RMK AO2 LTG DSNT SE P0000 T01060072
cycle: 21

Station Type Date Time Source
KMBS TAF 2019/10/15 20:34 UTC NOAA

TAF
AMD KMBS 151932Z 1520/1618 15009KT P6SM OVC100
TEMPO 1520/1521 -SHRA OVC070
FM152300 14010KT P6SM OVC050
FM160300 17008KT 5SM -SHRA OVC010
FM160700 27010G20KT P6SM OVC015
FM161700 29014G23KT P6SM -SHRA OVC015

Example: see airport list